Portada
METAR-TAF:

METAR-TAF

Aeropuertos :

Aeropuerto de Pescara-Abruzzo

Pescara, Italia

latitud: 42-26N, longitud: 014-12E, altitud: 10 m

Observación

El informe se hizo hace 1 hora y 7 minutos, a las 10:50 UTC
Viento 11 kt del norte-noreste
Temperatura 14°C
Humedad 21%
Presión 1013 hPa
Visibilidad 10 km o más
sin nubes por debajo de 1500 m y sin presencia de cumulonimbus.

METAR: LIBP 271050Z 02011KT CAVOK 14/M08 Q1013

Hora: 12:57 (11:57 UTC)

Pronóstico

El informe se hizo hace 57 minutos, a las 11:00 UTC
Pronóstico válido del 27 a las 12 UTC al 28 a las 12 UTC
Viento 10 kt del oeste-suroeste
Visibilidad 10 km o más
Nubes dispersas a una altura de 3000 ft

TAF: LIBP 271100Z 2712/2812 25010KT 9999 SCT030

Observaciones y pronósticos meteorológicos de más de 4000 aeropuertos (mensajes METAR y TAF).

Los puntos amarillos y rojos representan las estaciones disponibles.

Ponga el ratón en el punto deseado para ver el nombre de la estación.

Haga clic para ver las observaciones y los pronósticos meteorológicos.

Para cambiar el mapa : haga clic en los botones verdes con una cruz de color negro para hacer un zoom, en el botón verde con un guión para alejar o en las flechas verdes para mapas adyacentes.


METAR-TAF: